Disclaimer

Please do not use the information listed here in-flight or in-navigation, as they are not provided to us by the airports but are provided by volunteers, so they might be outdated.

Search


Regions


Airport information page

Radio informations:
Tower (TWR) - 118.1 MHz
Ground (GND) - 121.9 MHz
Approach (APP) - 119.7 MHz

Airport informations:
Latitude: 03° 19' 26.47" S
Longitude: 029° 19' 06.67" E
Elevation: 2582 feet - 787 meters
Operating hours: N/A
Operating agency: Civil government, landing fees and diplomatic clearance may be required
Timezone: UTC+2
Fuel: Jet A1, without icing nhibitor.

100/130 octane gasoline, leaded, MIL-L-5572F (GREEN)

Runway information:
17/35 - 11811 x 148 feet< - >3600 x 45 meters

Recent METARs:
HBBA 131400Z 27004KT 9999 FEW025 OVC10028/20 Q1008 NOSIG
HBBA 131400Z 27004KT 9999 FEW025 OVC10028/20 Q1008 NOSIG

Airport on the map: